Flight Track Log - Related Links

Times and Time Zones

All times are in EDT time to prevent confusion due to time zone crossing. See the N104HE flight status page for this flight to view local times or setup timezone preferences in your user account.

Time Position Orientation Groundspeed Altitude Reporting Facility
EDT Latitude Longitude Course Direction KTS MPH feet Rate Location/Type
Mon 06:37:00 AM 27.9833 -82.0167 41° Northeast 99 114 700  Level Tampa TRACON
Mon 06:37:06 AM 28.0000 -82.0000 41° Northeast 98 113 800 985 Climbing Tampa TRACON
Mon 06:38:07 AM 28.0167 -82.0000 360° North 105 121 1,800 942 Climbing Tampa TRACON
Mon 06:39:07 AM 28.0500 -82.0167 336° Northwest 107 123 2,700 900 Climbing Tampa TRACON
Mon 06:40:07 AM 28.0667 -82.0333 319° Northwest 106 122 3,600 850 Climbing Tampa TRACON
Mon 06:41:07 AM 28.1000 -82.0667 319° Northwest 109 125 4,400 800 Climbing Tampa TRACON
Mon 06:42:07 AM 28.1167 -82.0833 319° Northwest 108 124 5,200 800 Climbing Tampa TRACON
Mon 06:43:07 AM 28.1500 -82.1000 336° Northwest 110 127 6,000 750 Climbing Tampa TRACON
Mon 06:44:07 AM 28.1833 -82.1167 336° Northwest 112 129 6,700 700 Climbing Tampa TRACON
Mon 06:45:07 AM 28.2000 -82.1333 319° Northwest 112 129 7,400 650 Climbing Tampa TRACON
Mon 06:46:07 AM 28.2333 -82.1500 336° Northwest 113 130 8,000 300 Climbing Tampa TRACON
Mon 06:47:07 AM 28.2667 -82.1667 336° Northwest 135 155 8,000  Level Tampa TRACON
Mon 06:48:07 AM 28.3000 -82.1833 336° Northwest 134 154 8,000  Level Tampa TRACON
Mon 06:49:07 AM 28.3167 -82.2167 300° West 119 137 8,000  Level Tampa TRACON
Mon 06:50:07 AM 28.3500 -82.2333 336° Northwest 118 136 8,000  Level Tampa TRACON
Mon 06:51:07 AM 28.3833 -82.2500 336° Northwest 116 133 8,000  Level Tampa TRACON
Mon 06:52:13 AM 28.4000 -82.2667 319° Northwest 118 136 8,000  Level Tampa TRACON
Mon 06:53:13 AM 28.4333 -82.2833 336° Northwest 117 135 8,000  Level Tampa TRACON
Mon 06:54:13 AM 28.4667 -82.3000 336° Northwest 118 136 8,000  Level Tampa TRACON
Mon 06:55:08 AM 28.4833 -82.3167 319° Northwest 120 138 8,000  Level Tampa TRACON
Mon 06:56:08 AM 28.5167 -82.3500 319° Northwest 123 142 8,000  Level Tampa TRACON
Mon 06:58:17 AM 28.5808 -82.3889 332° Northwest 118 136 8,000  Level Jacksonville Center
Mon 06:59:18 AM 28.6103 -82.4078 331° Northwest 121 139 8,000  Level Jacksonville Center
Mon 07:00:18 AM 28.6375 -82.4242 332° Northwest 120 138 8,000  Level Jacksonville Center
Mon 07:01:19 AM 28.6689 -82.4453 329° Northwest 119 137 8,000  Level Jacksonville Center
Mon 07:02:20 AM 28.6958 -82.4642 328° Northwest 120 138 8,000  Level Jacksonville Center
Mon 07:03:20 AM 28.7231 -82.4853 326° Northwest 117 135 8,000  Level Jacksonville Center
Mon 07:04:27 AM 28.7503 -82.5089 323° Northwest 112 129 8,000  Level Jacksonville Center
Mon 07:05:21 AM 28.7692 -82.5325 312° West 112 129 8,000  Level Jacksonville Center
Mon 07:06:22 AM 28.7986 -82.5444 340° North 131 151 8,000  Level Jacksonville Center
Mon 07:07:29 AM 28.8339 -82.5369 11° North 130 150 8,000  Level Jacksonville Center
Mon 07:08:29 AM 28.8694 -82.5275 13° North 129 148 8,000  Level Jacksonville Center
Mon 07:09:30 AM 28.9069 -82.5225 North 128 147 8,000  Level Jacksonville Center
Mon 07:10:31 AM 28.9425 -82.5178 North 126 145 8,000  Level Jacksonville Center
Mon 07:11:31 AM 28.9800 -82.5128 North 125 144 8,000  Level Jacksonville Center
Mon 07:12:26 AM 29.0114 -82.5031 15° North 126 145 8,000  Level Jacksonville Center
Mon 07:13:32 AM 29.0467 -82.4983 North 127 146 8,000  Level Jacksonville Center
Mon 07:14:21 AM 29.0781 -82.4933 North 125 144 8,000  Level Jacksonville Center
Mon 07:15:34 AM 29.1156 -82.4861 10° North 126 145 8,000  Level Jacksonville Center
Mon 07:16:34 AM 29.1553 -82.4836 North 129 148 8,000  Level Jacksonville Center
Mon 07:17:29 AM 29.1825 -82.4906 347° North 125 144 8,000  Level Jacksonville Center
Mon 07:18:42 AM 29.1992 -82.5286 297° West 112 129 8,000  Level Jacksonville Center
Mon 07:19:04 AM 29.2056 -82.5381 308° West 115 132 8,000  Level Jacksonville Center
Mon 07:19:36 AM 29.2117 -82.5594 288° West 116 133 8,000  Level Jacksonville Center
Mon 07:20:04 AM 29.2203 -82.5739 304° West 115 132 8,000  Level Jacksonville Center
Mon 07:20:37 AM 29.2286 -82.5903 300° West 116 133 8,000  Level Jacksonville Center
Mon 07:21:04 AM 29.2328 -82.6047 288° West 115 132 8,000  Level Jacksonville Center
Mon 07:21:37 AM 29.2411 -82.6236 297° West 115 132 8,000  Level Jacksonville Center
Mon 07:22:04 AM 29.2494 -82.6378 304° West 115 132 8,000  Level Jacksonville Center
Mon 07:22:38 AM 29.2558 -82.6544 294° West 112 129 8,000  Level Jacksonville Center
Mon 07:23:04 AM 29.2642 -82.6689 303° West 115 132 8,000  Level Jacksonville Center
Mon 07:23:39 AM 29.2725 -82.6878 297° West 114 131 8,000  Level Jacksonville Center
Mon 07:24:04 AM 29.2767 -82.6997 292° West 115 132 8,000  Level Jacksonville Center
Mon 07:25:04 AM 29.2956 -82.7258 310° West 115 132 8,000 50 Level Jacksonville Center
Mon 07:26:04 AM 29.3167 -82.7544 310° West 120 138 8,100 50 Climbing Jacksonville Center
Mon 07:27:04 AM 29.3394 -82.7831 312° West 120 138 8,100  Level Jacksonville Center
Mon 07:28:04 AM 29.3606 -82.8117 310° West 120 138 8,100  Level Jacksonville Center
Mon 07:29:04 AM 29.3814 -82.8378 312° West 114 131 8,100  Level Jacksonville Center
Mon 07:30:04 AM 29.3939 -82.8711 293° West 114 131 8,100  Level Jacksonville Center
Mon 07:31:04 AM 29.4022 -82.9044 286° West 114 131 8,100  Level Jacksonville Center
Mon 07:32:04 AM 29.4125 -82.9378 289° West 109 125 8,100 50 Level Jacksonville Center
Mon 07:33:04 AM 29.4106 -82.9711 266° West 109 125 8,200 250 Climbing Jacksonville Center
Mon 07:34:04 AM 29.4106 -83.0022 270° West 103 119 8,600 350 Climbing Jacksonville Center
Mon 07:35:04 AM 29.4064 -83.0333 261° West 103 119 8,900 400 Climbing Jacksonville Center
Mon 07:36:04 AM 29.4042 -83.0642 265° West 103 119 9,400 500 Climbing Jacksonville Center
Mon 07:37:04 AM 29.4042 -83.0928 270° West 103 119 9,900 300 Climbing Jacksonville Center
Mon 07:38:04 AM 29.4019 -83.1261 266° West 103 119 10,000 50 Climbing Jacksonville Center
Mon 07:39:04 AM 29.3997 -83.1594 266° West 103 119 10,000  Level Jacksonville Center
Mon 07:40:04 AM 29.3978 -83.1953 266° West 103 119 10,000  Level Jacksonville Center
Mon 07:41:04 AM 29.3956 -83.2311 266° West 103 119 10,000  Level Jacksonville Center
Mon 07:42:04 AM 29.3911 -83.2644 261° West 103 119 10,000  Level Jacksonville Center
Mon 07:43:04 AM 29.3892 -83.2978 266° West 103 119 10,000  Level Jacksonville Center
Mon 07:44:04 AM 29.3869 -83.3336 266° West 103 119 10,000  Level Jacksonville Center
Mon 07:45:04 AM 29.3847 -83.3669 266° West 103 119 10,000  Level Jacksonville Center
Mon 07:46:04 AM 29.3825 -83.4025 266° West 103 119 10,000  Level Jacksonville Center
Mon 07:47:04 AM 29.3781 -83.4358 261° West 103 119 10,000 50 Level Jacksonville Center
Mon 07:48:04 AM 29.3758 -83.4692 266° West 103 119 10,100  Climbing Jacksonville Center
Mon 07:49:04 AM 29.3736 -83.5050 266° West 103 119 10,000 -50 Descending Jacksonville Center
Mon 07:50:04 AM 29.3714 -83.5383 266° West 103 119 10,000  Level Jacksonville Center
Mon 07:51:04 AM 29.3711 -83.5717 269° West 103 119 10,000 50 Level Jacksonville Center
Mon 07:52:04 AM 29.3689 -83.6050 266° West 103 119 10,100  Climbing Jacksonville Center
Mon 07:53:04 AM 29.3667 -83.6383 266° West 103 119 10,000 -50 Descending Jacksonville Center
Mon 07:54:04 AM 29.3644 -83.6717 266° West 103 119 10,000  Level Jacksonville Center
Mon 07:55:04 AM 29.3619 -83.7003 264° West 103 119 10,000  Level Jacksonville Center
Mon 07:56:04 AM 29.3639 -83.7336 274° West 103 119 10,000  Level Jacksonville Center
Mon 07:57:04 AM 29.3636 -83.7647 269° West 103 119 10,000  Level Jacksonville Center
Mon 07:58:04 AM 29.3656 -83.7956 274° West 103 119 10,000  Level Jacksonville Center
Mon 07:59:04 AM 29.3717 -83.8244 284° West 103 119 10,000  Level Jacksonville Center
Mon 08:00:04 AM 29.3944 -83.8531 312° West 103 119 10,000  Level Jacksonville Center
Mon 08:01:04 AM 29.4150 -83.8819 309° West 113 130 10,000  Level Jacksonville Center
Mon 08:02:04 AM 29.4317 -83.9108 304° West 119 137 10,000  Level Jacksonville Center
Mon 08:03:04 AM 29.4542 -83.9397 312° West 119 137 10,000  Level Jacksonville Center
Mon 08:04:04 AM 29.4728 -83.9636 312° West 114 131 10,000 50 Level Jacksonville Center
Mon 08:05:04 AM 29.4914 -83.9925 307° West 109 125 10,100  Climbing Jacksonville Center
Mon 08:06:04 AM 29.5058 -84.0236 298° West 109 125 10,000 -50 Descending Jacksonville Center
Mon 08:07:04 AM 29.5200 -84.0550 297° West 109 125 10,000  Level Jacksonville Center
Mon 08:08:04 AM 29.5322 -84.0861 294° West 109 125 10,000  Level Jacksonville Center
Mon 08:09:04 AM 29.5531 -84.1150 310° West 109 125 10,000  Level Jacksonville Center
Mon 08:10:04 AM 29.5736 -84.1414 312° West 114 131 10,000  Level Jacksonville Center
Mon 08:11:04 AM 29.5961 -84.1703 312° West 114 131 10,000 50 Level Jacksonville Center
Mon 08:12:04 AM 29.6169 -84.1944 315° West 114 131 10,100  Climbing Jacksonville Center
Mon 08:13:04 AM 29.6375 -84.2211 312° West 114 131 10,000 -50 Descending Jacksonville Center
Mon 08:14:04 AM 29.6622 -84.2478 317° Northwest 114 131 10,000  Level Jacksonville Center
Mon 08:15:04 AM 29.6808 -84.2767 307° West 114 131 10,000 50 Level Jacksonville Center
Mon 08:16:04 AM 29.7014 -84.3008 314° West 114 131 10,100  Climbing Jacksonville Center
Mon 08:17:04 AM 29.7239 -84.3250 317° Northwest 114 131 10,000 -50 Descending Jacksonville Center
Mon 08:18:04 AM 29.7444 -84.3517 312° West 114 131 10,000  Level Jacksonville Center
Mon 08:19:04 AM 29.7650 -84.3831 307° West 114 131 10,000  Level Jacksonville Center
Mon 08:20:04 AM 29.7878 -84.4075 317° Northwest 109 125 10,000  Level Jacksonville Center
Mon 08:21:04 AM 29.8042 -84.4364 303° West 109 125 10,000  Level Jacksonville Center
Mon 08:22:04 AM 29.8267 -84.4631 314° West 109 125 10,000 -2 Level Jacksonville Center
Mon 08:24:00 AM 29.8473 -84.5299 290° West  Level FlightAware Approximate
Mon 08:31:00 AM 29.9219 -84.7722 290° West  Level FlightAware Approximate
Mon 08:32:00 AM 29.9325 -84.8068 289° West  Level FlightAware Approximate
Mon 08:33:00 AM 29.9431 -84.8415 289° West  Level FlightAware Approximate
Mon 08:34:00 AM 29.9537 -84.8761 289° West  Level FlightAware Approximate
Mon 08:35:00 AM 29.9643 -84.9108 289° West  Level FlightAware Approximate
Mon 08:36:00 AM 29.9749 -84.9454 289° West  Level FlightAware Approximate
Mon 08:37:00 AM 29.9855 -84.9801 289° West  Level FlightAware Approximate
Mon 08:38:00 AM 29.9960 -85.0148 289° West  Level FlightAware Approximate
Mon 08:39:00 AM 30.0066 -85.0495 289° West  Level FlightAware Approximate
Mon 08:40:00 AM 30.0171 -85.0842 289° West  Level FlightAware Approximate
Mon 08:41:00 AM 30.0277 -85.1189 289° West  Level FlightAware Approximate
Mon 08:42:00 AM 30.0382 -85.1536 289° West  Level FlightAware Approximate
Mon 08:43:00 AM 30.0487 -85.1883 289° West  Level FlightAware Approximate
Mon 08:44:00 AM 30.0592 -85.2230 289° West  Level FlightAware Approximate
Mon 08:45:00 AM 30.0697 -85.2578 289° West  Level FlightAware Approximate
Mon 08:46:00 AM 30.0802 -85.2925 289° West  Level FlightAware Approximate
Mon 08:47:00 AM 30.0907 -85.3273 289° West  Level FlightAware Approximate
Mon 08:48:00 AM 30.1011 -85.3620 289° West  Level FlightAware Approximate
Mon 08:49:00 AM 30.1116 -85.3968 289° West  Level FlightAware Approximate
Mon 08:50:00 AM 30.1220 -85.4315 289° West  Level FlightAware Approximate
Mon 08:51:00 AM 30.1325 -85.4663 289° West  Level FlightAware Approximate
Mon 08:52:00 AM 30.1429 -85.5011 289° West  Level FlightAware Approximate
Mon 08:53:00 AM 30.1533 -85.5359 289° West  Level FlightAware Approximate
Mon 08:54:00 AM 30.1637 -85.5707 289° West  Level FlightAware Approximate
Mon 08:55:00 AM 30.1742 -85.6055 289° West  Level FlightAware Approximate
Mon 08:56:00 AM 30.1846 -85.6403 289° West  Level FlightAware Approximate
Mon 08:57:00 AM 30.1950 -85.6752 289° West  Level FlightAware Approximate
Mon 08:58:00 AM 30.2053 -85.7100 289° West  Level FlightAware Approximate
Mon 08:59:00 AM 30.2157 -85.7448 289° West  Level FlightAware Approximate
Mon 09:00:00 AM 30.2261 -85.7797 289° West  Level FlightAware Approximate
Mon 09:01:00 AM 30.2364 -85.8145 289° West  Level FlightAware Approximate
Mon 09:02:00 AM 30.2467 -85.8494 289° West  Level FlightAware Approximate
Mon 09:03:00 AM 30.2571 -85.8843 289° West  Level FlightAware Approximate
Mon 09:04:00 AM 30.2667 -85.9224 270° West  Level FlightAware Approximate
Mon 09:05:00 AM 30.2691 -85.9591 276° West  Level FlightAware Approximate
Mon 09:06:00 AM 30.2726 -85.9957 276° West  Level FlightAware Approximate
Mon 09:07:00 AM 30.2760 -86.0324 276° West  Level FlightAware Approximate
Mon 09:08:00 AM 30.2794 -86.0691 276° West  Level FlightAware Approximate
Mon 09:09:00 AM 30.2828 -86.1057 276° West  Level FlightAware Approximate
Mon 09:10:00 AM 30.2862 -86.1424 276° West  Level FlightAware Approximate
Mon 09:11:00 AM 30.2896 -86.1790 276° West  Level FlightAware Approximate
Mon 09:12:00 AM 30.2930 -86.2157 276° West  Level FlightAware Approximate
Mon 09:13:00 AM 30.2964 -86.2524 276° West  Level FlightAware Approximate
Mon 09:14:00 AM 30.2998 -86.2890 276° West  Level FlightAware Approximate
Mon 09:15:00 AM 30.3032 -86.3257 276° West  Level FlightAware Approximate
Mon 09:16:00 AM 30.3065 -86.3624 276° West  Level FlightAware Approximate
Mon 09:17:00 AM 30.3098 -86.3991 276° West  Level FlightAware Approximate
Mon 09:18:00 AM 30.3132 -86.4358 276° West  Level FlightAware Approximate
Mon 09:19:00 AM 30.3165 -86.4724 276° West  Level FlightAware Approximate
Mon 09:20:00 AM 30.3198 -86.5091 276° West  Level FlightAware Approximate
Mon 09:21:00 AM 30.3231 -86.5458 276° West  Level FlightAware Approximate
Mon 09:22:00 AM 30.3264 -86.5825 276° West  Level FlightAware Approximate
Mon 09:23:00 AM 30.3296 -86.6192 276° West  Level FlightAware Approximate
Mon 09:24:00 AM 30.3329 -86.6559 276° West  Level FlightAware Approximate
Mon 09:25:00 AM 30.3362 -86.6926 276° West  Level FlightAware Approximate
Mon 09:26:00 AM 30.3394 -86.7293 276° West  Level FlightAware Approximate
Mon 09:26:46 AM 30.3467 -86.6594 270° West 114 131 9,900  Level Jacksonville Center
Mon 09:27:00 AM 30.3426 -86.7660 276° West  Level FlightAware Approximate
Mon 09:28:00 AM 30.3459 -86.8027 276° West  Level FlightAware Approximate
Mon 09:28:04 AM 30.3494 -86.7053 274° West 114 131 9,900  Level Jacksonville Center
Mon 09:29:00 AM 30.3491 -86.8394 276° West  Level FlightAware Approximate
Mon 09:29:05 AM 30.3503 -86.7439 271° West 114 131 9,900  Level Jacksonville Center
Mon 09:30:00 AM 30.3500 -86.8763 270° West  Level FlightAware Approximate
Mon 09:30:05 AM 30.3556 -86.7778 280° West 113 130 9,900  Level Jacksonville Center
Mon 09:31:00 AM 30.3501 -86.9131 270° West  Level FlightAware Approximate
Mon 09:31:06 AM 30.3564 -86.8161 271° West 113 130 9,900  Level Jacksonville Center
Mon 09:32:13 AM 30.3594 -86.8572 275° West 113 130 9,900  Level Jacksonville Center
Mon 09:33:20 AM 30.3581 -86.8956 268° West 113 130 9,900  Level Jacksonville Center
Mon 09:34:02 AM 30.3594 -86.9222 273° West 115 132 9,900  Level Jacksonville Center
Mon 09:35:09 AM 30.3603 -86.9631 271° West 113 130 9,900  Level Jacksonville Center
Mon 09:36:10 AM 30.3569 -87.0017 264° West 115 132 9,900  Level Jacksonville Center
Mon 09:37:11 AM 30.3578 -87.0378 272° West 115 132 9,900  Level Jacksonville Center
Mon 09:38:11 AM 30.3586 -87.0761 271° West 115 132 9,900  Level Jacksonville Center
Mon 09:39:12 AM 30.3575 -87.1122 268° West 116 133 9,900  Level Jacksonville Center
Mon 09:40:13 AM 30.3561 -87.1508 268° West 116 133 9,900  Level Jacksonville Center
Mon 09:41:13 AM 30.3528 -87.1892 264° West 117 135 9,900  Level Jacksonville Center
Mon 09:42:14 AM 30.3556 -87.2278 275° West 117 135 9,900  Level Jacksonville Center
Mon 09:43:27 AM 30.3542 -87.2733 268° West 116 133 9,900  Level Jacksonville Center
Mon 09:44:28 AM 30.3528 -87.3119 268° West 116 133 9,900  Level Jacksonville Center
Mon 09:45:22 AM 30.3536 -87.3456 272° West 116 133 9,900  Level Jacksonville Center
Mon 09:46:17 AM 30.3547 -87.3769 272° West 116 133 9,900  Level Jacksonville Center
Mon 09:47:17 AM 30.3511 -87.4175 264° West 116 133 9,900  Level Jacksonville Center
Mon 09:48:18 AM 30.3519 -87.4539 272° West 117 135 9,900  Level Jacksonville Center
Mon 09:49:25 AM 30.3506 -87.4947 268° West 119 137 9,900  Level Jacksonville Center
Mon 09:50:25 AM 30.3489 -87.5356 267° West 119 137 9,900  Level Jacksonville Center
Mon 09:51:20 AM 30.3497 -87.5692 272° West 119 137 9,900  Level Jacksonville Center
Mon 09:53:34 AM 30.3514 -87.6417 272° West 118 136 9,900  Level Houston Center
Mon 09:54:37 AM 30.3500 -87.6867 268° West 116 133 9,900  Level Houston Center
Mon 09:55:39 AM 30.3492 -87.7253 269° West 118 136 9,900  Level Houston Center
Mon 09:56:41 AM 30.3475 -87.7653 267° West 122 140 9,900  Level Houston Center
Mon 09:57:43 AM 30.3469 -87.8028 269° West 118 136 9,900 48 Level Houston Center
Mon 09:58:45 AM 30.3461 -87.8408 269° West 117 135 10,000  Climbing Houston Center
Mon 09:59:47 AM 30.3456 -87.8792 269° West 118 136 9,900 -48 Descending Houston Center
Mon 10:00:49 AM 30.3450 -87.9247 269° West 116 133 9,900  Level Houston Center
Mon 10:01:51 AM 30.3447 -87.9639 270° West 119 137 9,900 48 Level Houston Center
Mon 10:02:53 AM 30.3425 -88.0028 266° West 121 139 10,000 48 Climbing Houston Center
Mon 10:03:55 AM 30.3422 -88.0408 270° West 119 137 10,000  Level Houston Center
Mon 10:04:57 AM 30.3414 -88.0778 269° West 117 135 10,000  Level Houston Center
Mon 10:05:59 AM 30.3400 -88.1169 268° West 120 138 10,000  Level Houston Center
Mon 10:07:01 AM 30.3381 -88.1625 267° West 119 137 10,000  Level Houston Center
Mon 10:08:04 AM 30.3378 -88.1997 270° West 118 136 10,000  Level Houston Center
Mon 10:09:06 AM 30.3367 -88.2386 268° West 120 138 10,000  Level Houston Center
Mon 10:10:08 AM 30.3356 -88.2764 268° West 118 136 10,000  Level Houston Center
Mon 10:11:10 AM 30.3353 -88.3150 270° West 119 137 10,000  Level Houston Center
Mon 10:12:12 AM 30.3336 -88.3528 267° West 119 137 10,000  Level Houston Center
Mon 10:13:14 AM 30.3331 -88.3989 269° West 119 137 10,000  Level Houston Center
Mon 10:14:16 AM 30.3325 -88.4375 269° West 120 138 10,000  Level Houston Center
Mon 10:15:18 AM 30.3306 -88.4758 267° West 120 138 10,000 48 Level Houston Center
Mon 10:16:20 AM 30.3297 -88.5139 269° West 119 137 10,100  Climbing Houston Center
Mon 10:17:22 AM 30.3289 -88.5528 269° West 121 139 10,000 -48 Descending Houston Center
Mon 10:18:24 AM 30.3283 -88.5911 269° West 121 139 10,000  Level Houston Center
Mon 10:19:26 AM 30.3267 -88.6375 268° West 121 139 10,000  Level Houston Center
Mon 10:20:30 AM 30.3256 -88.6778 268° West 123 142 10,000  Level Houston Center
Mon 10:21:31 AM 30.3250 -88.7169 269° West 123 142 10,000  Level Houston Center
Mon 10:22:33 AM 30.3236 -88.7558 268° West 122 140 10,000  Level Houston Center
Mon 10:23:35 AM 30.3231 -88.7958 269° West 123 142 10,000  Level Houston Center
Mon 10:24:37 AM 30.3136 -88.8333 254° West 123 142 10,000  Level Houston Center
Mon 10:25:39 AM 30.2950 -88.8747 242° Southwest 121 139 10,000  Level Houston Center
Mon 10:26:41 AM 30.2822 -88.9122 248° West 124 143 10,000  Level Houston Center
Mon 10:27:43 AM 30.2672 -88.9481 244° Southwest 123 142 10,000  Level Houston Center
Mon 10:28:45 AM 30.2533 -88.9850 246° West 127 146 10,000  Level Houston Center
Mon 10:29:47 AM 30.2392 -89.0225 246° West 127 146 10,000  Level Houston Center
Mon 10:30:50 AM 30.2203 -89.0681 244° Southwest 129 148 10,000  Level Houston Center
Mon 10:31:52 AM 30.2056 -89.1067 246° West 130 150 10,000  Level Houston Center
Mon 10:32:54 AM 30.1903 -89.1442 245° Southwest 130 150 10,000  Level Houston Center
Mon 10:33:56 AM 30.1756 -89.1828 246° West 131 151 10,000  Level Houston Center
Mon 10:34:58 AM 30.1611 -89.2211 246° West 130 150 10,000  Level Houston Center
Mon 10:36:00 AM 30.1458 -89.2581 244° Southwest 129 148 10,000 -48 Level Houston Center
Mon 10:37:02 AM 30.1278 -89.3042 246° West 130 150 9,900  Descending Houston Center
Mon 10:37:50 AM 30.1164 -89.3347 247° West 131 151 10,000  Climbing Houston Center
Mon 10:38:04 AM 30.1128 -89.3431 243° Southwest 131 151 9,900 -79 Descending Houston Center
Mon 10:39:06 AM 30.0975 -89.3806 245° Southwest 130 150 9,900  Level Houston Center
Mon 10:40:08 AM 30.0831 -89.4192 247° West 130 150 9,900  Level Houston Center
Mon 10:40:10 AM 30.0819 -89.4253 258° West 131 151 9,900  Level Houston Center
Mon 10:41:10 AM 30.0678 -89.4569 243° Southwest 130 150 9,900  Level Houston Center
Mon 10:41:59 AM 30.0553 -89.4917 247° West 130 150 9,900  Level Houston Center
Mon 10:42:12 AM 30.0522 -89.4953 226° Southwest 131 151 9,900  Level Houston Center
Mon 10:43:06 AM 30.0358 -89.5358 245° Southwest 129 148 9,900  Level Houston Center
Mon 10:43:14 AM 30.0364 -89.5325 79° East 130 150 9,900  Level Houston Center
Mon 10:44:16 AM 30.0172 -89.5778 244° Southwest 130 150 9,900  Level Houston Center
Mon 10:45:02 AM 30.0072 -89.6092 250° West 130 150 9,900  Level Houston Center
Mon 10:45:17 AM 30.0019 -89.6156 226° Southwest 130 150 9,900 -273 Level Houston Center
Mon 10:46:08 AM 29.9897 -89.6483 247° West 130 150 9,600 -290 Descending Houston Center
Mon 10:46:19 AM 29.9869 -89.6539 240° Southwest 130 150 9,600 -295 Level Houston Center
Mon 10:47:09 AM 29.9744 -89.6875 247° West 135 155 9,300 -387 Descending Houston Center
Mon 10:47:21 AM 29.9700 -89.6933 229° Southwest 134 154 9,200 -393 Descending Houston Center
Mon 10:48:10 AM 29.9569 -89.7267 246° West 133 153 8,900 -387 Descending Houston Center
Mon 10:48:23 AM 29.9539 -89.7317 235° Southwest 133 153 8,800 -436 Descending Houston Center
Mon 10:49:05 AM 29.9433 -89.7608 247° West 135 155 8,500 -387 Descending Houston Center
Mon 10:49:25 AM 29.9381 -89.7703 237° Southwest 133 153 8,400 -545 Descending Houston Center
Mon 10:50:11 AM 29.9242 -89.8072 247° West 136 157 7,900 -484 Descending Houston Center
Mon 10:50:27 AM 29.9219 -89.8092 217° Southwest 134 154 7,900 -436 Level Houston Center
Mon 10:51:06 AM 29.9086 -89.8439 246° West 135 155 7,500 -581 Descending Houston Center
Mon 10:51:29 AM 29.9025 -89.8561 240° Southwest 134 154 7,300 -492 Descending Houston Center
Mon 10:52:07 AM 29.8931 -89.8806 246° West 130 150 7,000 -387 Descending Houston Center
Mon 10:52:31 AM 29.8869 -89.8942 243° Southwest 132 152 6,900 -393 Descending Houston Center
Mon 10:53:08 AM 29.8778 -89.9172 245° Southwest 128 147 6,600 -484 Descending Houston Center
Mon 10:53:33 AM 29.8722 -89.9311 245° Southwest 129 148 6,400 -492 Descending Houston Center
Mon 10:54:09 AM 29.8622 -89.9539 243° Southwest 127 146 6,100 -484 Descending Houston Center
Mon 10:54:35 AM 29.8572 -89.9683 248° West 129 148 5,900 -455 Descending Houston Center
Mon 10:55:15 AM 29.8447 -89.9978 244° Southwest 127 146 5,600 -387 Descending Houston Center
Mon 10:55:37 AM 29.8422 -90.0047 247° West 127 146 5,500 -492 Descending Houston Center
Mon 10:56:16 AM 29.8292 -90.0344 243° Southwest 127 146 5,100 -581 Descending Houston Center
Mon 10:56:39 AM 29.8275 -90.0411 254° West 127 146 4,900 -545 Descending Houston Center
Mon 10:57:11 AM 29.8156 -90.0661 241° Southwest 121 139 4,600 -581 Descending Houston Center
Mon 10:57:41 AM 29.8097 -90.0833 249° West 124 143 4,300 -492 Descending Houston Center
Mon 10:58:12 AM 29.8019 -90.1003 242° Southwest 117 135 4,100 -290 Descending Houston Center
Mon 10:58:43 AM 29.7964 -90.1158 248° West 119 137 4,000 -90 Descending Houston Center
Mon 10:59:19 AM 29.7864 -90.1369 241° Southwest 119 137 4,000  Level Houston Center
Mon 10:59:45 AM 29.7814 -90.1500 246° West 119 137 4,000  Level Houston Center
Mon 11:00:19 AM 29.7728 -90.1686 242° Southwest 115 132 4,000  Level Houston Center
Mon 11:00:47 AM 29.7678 -90.1833 249° West 117 135 4,000  Level Houston Center
Mon 11:01:20 AM 29.7592 -90.2028 243° Southwest 116 133 4,000  Level Houston Center
Mon 11:01:49 AM 29.7539 -90.2169 247° West 116 133 4,000  Level Houston Center
Mon 11:02:21 AM 29.7436 -90.2392 242° Southwest 117 135 4,000  Level Houston Center
Mon 11:02:51 AM 29.7400 -90.2508 250° West 116 133 4,000  Level Houston Center
Mon 11:03:22 AM 29.7300 -90.2733 243° Southwest 118 136 4,000  Level Houston Center
Mon 11:03:53 AM 29.7253 -90.2844 244° Southwest 117 135 4,000  Level Houston Center
Mon 11:04:23 AM 29.7164 -90.3050 244° Southwest 116 133 4,000  Level Houston Center
Mon 11:04:55 AM 29.7092 -90.3242 247° West 116 133 4,000  Level Houston Center
Mon 11:05:24 AM 29.7008 -90.3392 237° Southwest 114 131 4,000  Level Houston Center
Mon 11:05:57 AM 29.6958 -90.3569 252° West 114 131 4,000  Level Houston Center
Mon 11:06:24 AM 29.6869 -90.3708 234° Southwest 114 131 4,000  Level Houston Center
Mon 11:06:59 AM 29.6817 -90.3903 253° West 115 132 4,000  Level Houston Center
Mon 11:07:25 AM 29.6733 -90.4047 236° Southwest 117 135 4,000  Level Houston Center
Mon 11:08:01 AM 29.6678 -90.4231 251° West 115 132 4,000  Level Houston Center
Mon 11:08:20 AM 29.6617 -90.4364 242° Southwest 114 131 4,000  Level Houston Center
Mon 11:09:03 AM 29.6536 -90.4561 245° Southwest 115 132 4,000  Level Houston Center
Mon 11:09:21 AM 29.6461 -90.4681 234° Southwest 117 135 4,000  Level Houston Center
Mon 11:10:05 AM 29.6394 -90.4900 251° West 116 133 4,000  Level Houston Center
Mon 11:10:22 AM 29.6281 -90.5022 223° Southwest 113 130 4,000  Level Houston Center
Mon 11:11:07 AM 29.6144 -90.5169 223° Southwest 110 127 4,000  Level Houston Center
Mon 11:11:23 AM 29.6014 -90.5153 174° South 106 122 4,000 -97 Level Houston Center
Mon 11:12:09 AM 29.5831 -90.5267 208° Southwest 110 127 3,900 -197 Descending Houston Center
Mon 11:12:24 AM 29.5747 -90.5306 202° Southwest 108 124 3,800 -484 Descending Houston Center
Mon 11:13:11 AM 29.5553 -90.5403 204° Southwest 110 127 3,400 -500 Descending Houston Center
Mon 11:13:24 AM 29.5478 -90.5433 200° South 108 124 3,300 -387 Descending Houston Center
Mon 11:14:13 AM 29.5283 -90.5528 203° Southwest 108 124 3,000 -290 Descending Houston Center
Mon 11:14:26 AM 29.5189 -90.5542 187° South 109 125 3,000  Level Houston Center
Mon 11:15:15 AM 29.4992 -90.5639 203° Southwest 108 124 3,000 -91 Level Houston Center
Mon 11:15:32 AM 29.4858 -90.5672 192° South 108 124 2,900 -571 Descending Houston Center
Mon 11:16:18 AM 29.4881 -90.6017 274° West 126 145 2,400 -655 Descending Houston Center
Mon 11:16:27 AM 29.4869 -90.6053 251° West 132 152 2,300 -600 Descending Houston Center
Mon 11:17:28 AM 29.4964 -90.6433 286° West 121 139 1,700 -590 Descending Houston Center

Login

Don't have an account? Register now (free) for customized features, flight alerts, and more!